createdAt,value
2023-11-03T00:01:18.839Z,99059.20
2023-11-03T00:03:46.630Z,99055.06
2023-11-03T00:06:14.383Z,99053.02
2023-11-03T00:08:42.988Z,99043.10
2023-11-03T00:11:10.553Z,99042.45
2023-11-03T00:13:38.210Z,99047.84
2023-11-03T00:16:06.062Z,99043.81
2023-11-03T00:18:33.855Z,99050.65
2023-11-03T00:21:05.308Z,99052.91
2023-11-03T00:23:33.196Z,99054.17
2023-11-03T00:26:00.851Z,99056.63
2023-11-03T00:28:28.524Z,99056.49
2023-11-03T00:30:56.379Z,99057.72
2023-11-03T00:33:24.045Z,99058.53
2023-11-03T00:35:51.826Z,99060.67
2023-11-03T00:38:19.934Z,99052.94
2023-11-03T00:40:47.468Z,99050.39
2023-11-03T00:43:15.589Z,99049.57
2023-11-03T00:45:43.334Z,99051.06
2023-11-03T00:48:10.992Z,99053.94
2023-11-03T00:50:38.554Z,99054.27
2023-11-03T00:53:06.125Z,99059.21
2023-11-03T00:55:33.683Z,99057.57
2023-11-03T00:58:01.464Z,99057.77
2023-11-03T01:00:29.623Z,99059.02
2023-11-03T01:02:57.271Z,99061.13
2023-11-03T01:05:26.316Z,99062.35
2023-11-03T01:07:54.300Z,99061.83
2023-11-03T01:10:24.064Z,99061.30
2023-11-03T01:12:51.906Z,99063.60
2023-11-03T01:15:22.328Z,99062.61
2023-11-03T01:17:51.899Z,99063.70
2023-11-03T01:20:29.602Z,99067.14
2023-11-03T01:22:58.281Z,99064.28
2023-11-03T01:25:26.256Z,99065.02
2023-11-03T01:27:55.083Z,99062.41
2023-11-03T01:30:22.826Z,99059.81
2023-11-03T01:32:54.686Z,99058.09
2023-11-03T01:35:25.573Z,99054.86
2023-11-03T01:37:54.854Z,99054.91
2023-11-03T01:40:22.609Z,99053.38
2023-11-03T01:42:50.677Z,99055.70
2023-11-03T01:45:19.165Z,99054.66
2023-11-03T01:47:46.696Z,99057.98
2023-11-03T01:50:15.065Z,99059.73
2023-11-03T01:52:42.784Z,99059.46
2023-11-03T01:55:10.569Z,99058.63
2023-11-03T01:57:39.597Z,99058.64
2023-11-03T02:00:08.762Z,99061.09
2023-11-03T02:02:36.329Z,99061.30
2023-11-03T02:05:04.827Z,99062.73
2023-11-03T02:07:32.472Z,99057.77
2023-11-03T02:10:00.192Z,99063.28
2023-11-03T02:12:27.914Z,99068.23
2023-11-03T02:14:55.570Z,99071.23
2023-11-03T02:17:23.222Z,99074.79
2023-11-03T02:19:50.832Z,99073.98
2023-11-03T02:22:18.369Z,99071.91
2023-11-03T02:24:46.040Z,99071.80
2023-11-03T02:27:13.705Z,99072.73
2023-11-03T02:29:41.476Z,99071.43
2023-11-03T02:32:09.142Z,99077.27
2023-11-03T02:34:36.771Z,99072.97
2023-11-03T02:37:05.039Z,99073.26
2023-11-03T02:39:33.064Z,99076.42
2023-11-03T02:42:00.576Z,99077.38
2023-11-03T02:44:28.408Z,99075.13
2023-11-03T02:46:56.682Z,99077.53
2023-11-03T02:49:24.278Z,99074.60
2023-11-03T02:51:52.445Z,99069.06
2023-11-03T02:54:20.202Z,99070.14
2023-11-03T02:56:47.778Z,99072.76
2023-11-03T02:59:15.334Z,99076.40
2023-11-03T03:01:42.898Z,99078.15
2023-11-03T03:04:10.546Z,99080.05
2023-11-03T03:06:38.251Z,99077.59
2023-11-03T03:09:06.316Z,99074.13
2023-11-03T03:11:33.877Z,99077.79
2023-11-03T03:14:01.777Z,99075.41
2023-11-03T03:16:29.409Z,99073.67
2023-11-03T03:18:57.091Z,99077.50
2023-11-03T03:21:25.055Z,99077.52
2023-11-03T03:23:52.628Z,99080.33
2023-11-03T03:26:20.213Z,99078.77
2023-11-03T03:28:47.762Z,99079.46
2023-11-03T03:31:15.460Z,99077.89
2023-11-03T03:33:43.275Z,99072.52
2023-11-03T03:36:11.210Z,99071.79
2023-11-03T03:38:38.836Z,99072.58
2023-11-03T03:41:12.428Z,99074.49
2023-11-03T03:43:40.001Z,99074.48
2023-11-03T03:46:08.103Z,99072.05
2023-11-03T03:48:35.744Z,99073.80
2023-11-03T03:51:03.412Z,99069.65
2023-11-03T03:53:31.601Z,99069.20
2023-11-03T03:55:59.992Z,99063.71
2023-11-03T03:58:27.541Z,99061.48
2023-11-03T04:00:55.156Z,99059.13
2023-11-03T04:03:22.859Z,99055.84
2023-11-03T04:05:50.477Z,99052.71
2023-11-03T04:08:18.121Z,99051.32
2023-11-03T04:10:45.672Z,99050.77
2023-11-03T04:13:13.456Z,99049.02
2023-11-03T04:15:41.060Z,99043.98
2023-11-03T04:18:08.940Z,99049.08
2023-11-03T04:20:36.692Z,99051.39
2023-11-03T04:23:04.312Z,99047.41
2023-11-03T04:25:31.884Z,99046.80
2023-11-03T04:27:59.567Z,99043.54
2023-11-03T04:30:27.148Z,99042.52
2023-11-03T04:32:54.815Z,99048.48
2023-11-03T04:35:22.381Z,99046.60
2023-11-03T04:37:51.341Z,99043.83
2023-11-03T04:40:22.537Z,99045.08
2023-11-03T04:42:50.180Z,99041.36
2023-11-03T04:45:17.924Z,99040.85
2023-11-03T04:47:45.552Z,99045.54
2023-11-03T04:50:13.377Z,99039.25
2023-11-03T04:52:40.898Z,99036.67
2023-11-03T04:55:10.103Z,99038.61
2023-11-03T04:57:37.807Z,99041.40
2023-11-03T05:00:15.315Z,99042.98
2023-11-03T05:02:43.024Z,99044.91
2023-11-03T05:05:10.941Z,99049.46
2023-11-03T05:07:41.908Z,99051.92
2023-11-03T05:10:10.019Z,99050.86
2023-11-03T05:12:37.934Z,99052.21
2023-11-03T05:15:09.065Z,99049.16
2023-11-03T05:17:36.820Z,99052.29
2023-11-03T05:20:08.516Z,99049.30
2023-11-03T05:22:36.850Z,99053.77
2023-11-03T05:25:07.534Z,99052.98
2023-11-03T05:27:35.093Z,99055.88
2023-11-03T05:30:02.666Z,99058.80
2023-11-03T05:32:30.347Z,99060.30
2023-11-03T05:34:57.900Z,99061.40
2023-11-03T05:37:25.456Z,99062.89
2023-11-03T05:39:53.053Z,99065.23
2023-11-03T05:42:21.107Z,99063.36
2023-11-03T05:44:48.765Z,99058.40
2023-11-03T05:47:16.330Z,99061.27
2023-11-03T05:49:44.012Z,99058.58
2023-11-03T05:52:11.690Z,99057.13
2023-11-03T05:54:39.227Z,99052.48
2023-11-03T05:57:06.795Z,99053.45
2023-11-03T05:59:34.567Z,99054.42
2023-11-03T06:02:02.142Z,99053.15
2023-11-03T06:04:29.745Z,99047.90
2023-11-03T06:06:57.478Z,99045.79
2023-11-03T06:09:25.544Z,99042.77
2023-11-03T06:11:53.115Z,99043.42
2023-11-03T06:14:20.877Z,99041.15
2023-11-03T06:16:48.447Z,99038.58
2023-11-03T06:19:16.098Z,99040.78
2023-11-03T06:21:43.811Z,99035.05
2023-11-03T06:24:12.057Z,99035.06
2023-11-03T06:26:39.829Z,99037.26
2023-11-03T06:29:07.391Z,99036.88
2023-11-03T06:31:37.197Z,99041.00
2023-11-03T06:34:05.061Z,99041.52
2023-11-03T06:36:40.739Z,99037.84
2023-11-03T06:39:20.202Z,99032.83
2023-11-03T06:41:47.934Z,99028.32
2023-11-03T06:44:15.711Z,99022.04
2023-11-03T06:46:43.286Z,99023.86
2023-11-03T06:49:10.990Z,99024.34
2023-11-03T06:51:38.733Z,99023.27
2023-11-03T06:54:06.445Z,99024.44
2023-11-03T06:56:34.049Z,99019.83
2023-11-03T06:59:01.670Z,99020.16
2023-11-03T07:01:29.891Z,99018.67
2023-11-03T07:03:57.612Z,99020.19
2023-11-03T07:06:26.153Z,99024.64
2023-11-03T07:08:53.717Z,99021.02
2023-11-03T07:11:21.288Z,99024.05
2023-11-03T07:13:48.857Z,99022.59
2023-11-03T07:16:17.656Z,99024.48
2023-11-03T07:18:48.680Z,99028.76
2023-11-03T07:21:17.591Z,99026.73
2023-11-03T07:23:45.289Z,99023.64
2023-11-03T07:26:15.236Z,99021.64
2023-11-03T07:28:47.237Z,99020.81
2023-11-03T07:31:15.201Z,99018.61
2023-11-03T07:33:43.557Z,99023.11
2023-11-03T07:36:12.082Z,99026.09
2023-11-03T07:38:40.965Z,99029.30
2023-11-03T07:41:11.705Z,99033.95
2023-11-03T07:43:39.729Z,99035.10
2023-11-03T07:46:07.542Z,99038.82
2023-11-03T07:48:35.542Z,99037.42
2023-11-03T07:51:04.032Z,99037.48
2023-11-03T07:53:31.733Z,99036.89
2023-11-03T07:56:00.305Z,99045.56
2023-11-03T07:58:29.244Z,99043.67
2023-11-03T08:00:59.470Z,99041.40
2023-11-03T08:03:29.412Z,99040.16
2023-11-03T08:05:58.216Z,99045.52
2023-11-03T08:08:27.011Z,99046.31
2023-11-03T08:10:55.285Z,99050.25
2023-11-03T08:13:25.645Z,99046.86
2023-11-03T08:15:53.111Z,99044.17
2023-11-03T08:18:20.777Z,99043.09
2023-11-03T08:20:48.832Z,99034.77
2023-11-03T08:23:19.726Z,99035.02
2023-11-03T08:25:48.690Z,99032.31
2023-11-03T08:28:17.011Z,99026.83
2023-11-03T08:30:44.705Z,99024.92
2023-11-03T08:33:12.498Z,99025.79
2023-11-03T08:35:40.149Z,99020.80
2023-11-03T08:38:08.855Z,99014.95
2023-11-03T08:40:36.526Z,99009.01
2023-11-03T08:43:05.965Z,99008.87
2023-11-03T08:45:34.113Z,98999.92
2023-11-03T08:48:03.171Z,99002.42
2023-11-03T08:50:31.113Z,99005.17
2023-11-03T08:52:59.248Z,99004.91
2023-11-03T08:55:27.180Z,99005.82
2023-11-03T08:57:56.743Z,99003.55
2023-11-03T09:00:25.010Z,98998.05
2023-11-03T09:02:53.170Z,99000.89
2023-11-03T09:05:20.963Z,98999.02
2023-11-03T09:07:49.562Z,98991.67
2023-11-03T09:10:17.408Z,98984.09
2023-11-03T09:12:45.246Z,98978.69
2023-11-03T09:15:13.459Z,98971.39
2023-11-03T09:17:45.963Z,98959.02
2023-11-03T09:20:19.668Z,98954.45
2023-11-03T09:22:49.774Z,98954.48
2023-11-03T09:25:17.838Z,98953.50
2023-11-03T09:27:45.931Z,98951.70
2023-11-03T09:30:13.719Z,98950.79
2023-11-03T09:32:44.584Z,98946.52
2023-11-03T09:35:12.429Z,98946.42
2023-11-03T09:37:40.184Z,98944.41
2023-11-03T09:40:11.951Z,98944.77
2023-11-03T09:42:41.694Z,98945.31
2023-11-03T09:45:16.992Z,98948.59
2023-11-03T09:47:44.822Z,98946.94
2023-11-03T09:50:12.651Z,98936.77
2023-11-03T09:52:46.190Z,98931.39
2023-11-03T09:55:20.148Z,98929.58
2023-11-03T09:57:50.995Z,98931.04
2023-11-03T10:00:19.125Z,98927.77
2023-11-03T10:02:48.855Z,98932.53
2023-11-03T10:05:17.776Z,98932.12
2023-11-03T10:08:02.242Z,98933.77
2023-11-03T10:10:36.651Z,98928.56
2023-11-03T10:13:10.886Z,98923.45
2023-11-03T10:15:39.976Z,98918.91
2023-11-03T10:18:08.665Z,98920.88
2023-11-03T10:20:36.695Z,98920.71
2023-11-03T10:23:04.638Z,98917.05
2023-11-03T10:25:33.449Z,98911.89
2023-11-03T10:28:03.189Z,98913.66
2023-11-03T10:30:31.395Z,98912.28
2023-11-03T10:32:59.125Z,98911.23
2023-11-03T10:35:26.855Z,98913.01
2023-11-03T10:37:55.715Z,98905.57
2023-11-03T10:40:23.606Z,98904.93
2023-11-03T10:42:53.623Z,98900.77
2023-11-03T10:45:25.518Z,98891.80
2023-11-03T10:48:09.533Z,98885.53
2023-11-03T10:50:40.605Z,98879.77
2023-11-03T10:53:14.589Z,98884.39
2023-11-03T10:55:48.320Z,98884.94
2023-11-03T10:58:16.901Z,98882.17
2023-11-03T11:00:53.937Z,98877.91
2023-11-03T11:03:28.763Z,98875.67
2023-11-03T11:06:13.480Z,98869.92
2023-11-03T11:08:43.179Z,98873.16
2023-11-03T11:11:11.550Z,98871.80
2023-11-03T11:13:45.166Z,98872.52
2023-11-03T11:16:13.816Z,98874.11
2023-11-03T11:18:47.817Z,98874.20
2023-11-03T11:21:17.084Z,98873.24
2023-11-03T11:23:45.593Z,98866.96
2023-11-03T11:26:31.731Z,98862.98
2023-11-03T11:29:04.010Z,98860.30
2023-11-03T11:31:32.017Z,98858.85
2023-11-03T11:34:16.399Z,98853.09
2023-11-03T11:36:45.237Z,98849.07
2023-11-03T11:39:18.570Z,98844.48
2023-11-03T11:41:52.608Z,98843.80
2023-11-03T11:44:27.220Z,98844.14
2023-11-03T11:46:57.487Z,98830.23
2023-11-03T11:49:27.739Z,98821.82
2023-11-03T11:51:56.966Z,98812.70
2023-11-03T11:54:24.849Z,98810.59
2023-11-03T11:56:52.680Z,98803.67
2023-11-03T11:59:21.876Z,98799.70
2023-11-03T12:01:50.567Z,98794.81
2023-11-03T12:04:18.735Z,98798.09
2023-11-03T12:06:47.066Z,98794.08
2023-11-03T12:09:17.505Z,98795.98
2023-11-03T12:11:46.182Z,98792.20
2023-11-03T12:14:14.331Z,98790.98
2023-11-03T12:16:41.965Z,98786.56
2023-11-03T12:19:12.602Z,98790.16
2023-11-03T12:21:43.200Z,98787.30
2023-11-03T12:24:11.038Z,98783.49
2023-11-03T12:26:38.598Z,98782.73
2023-11-03T12:29:32.768Z,98777.59
2023-11-03T12:32:01.836Z,98773.38
2023-11-03T12:34:31.148Z,98769.91
2023-11-03T12:37:00.612Z,98762.73
2023-11-03T12:39:28.560Z,98767.41
2023-11-03T12:42:08.923Z,98769.70
2023-11-03T12:44:57.527Z,98772.36
2023-11-03T12:47:41.883Z,98772.79
2023-11-03T12:50:10.618Z,98781.54
2023-11-03T12:52:38.580Z,98781.09
2023-11-03T12:55:06.730Z,98776.54
2023-11-03T12:57:38.515Z,98772.38
2023-11-03T13:00:11.337Z,98767.16
2023-11-03T13:02:47.290Z,98763.44
2023-11-03T13:05:15.991Z,98761.16
2023-11-03T13:07:45.718Z,98757.88
2023-11-03T13:10:15.091Z,98762.50
2023-11-03T13:12:42.834Z,98766.77
2023-11-03T13:15:12.554Z,98766.66
2023-11-03T13:17:40.407Z,98768.95
2023-11-03T13:20:20.141Z,98768.33
2023-11-03T13:22:51.598Z,98765.15
2023-11-03T13:25:19.863Z,98757.11
2023-11-03T13:27:48.128Z,98757.10
2023-11-03T13:30:17.476Z,98756.20
2023-11-03T13:32:51.569Z,98753.91
2023-11-03T13:35:22.896Z,98759.40
2023-11-03T13:37:51.135Z,98765.20
2023-11-03T13:40:20.344Z,98758.75
2023-11-03T13:42:49.567Z,98759.82
2023-11-03T13:45:17.335Z,98755.74
2023-11-03T13:47:45.034Z,98758.90
2023-11-03T13:50:21.040Z,98756.77
2023-11-03T13:52:51.109Z,98750.75
2023-11-03T13:55:22.895Z,98753.83
2023-11-03T13:57:53.266Z,98756.94
2023-11-03T14:00:21.600Z,98758.33
2023-11-03T14:02:50.315Z,98758.98
2023-11-03T14:05:18.325Z,98759.79
2023-11-03T14:07:46.498Z,98760.80
2023-11-03T14:10:16.623Z,98768.78
2023-11-03T14:12:45.403Z,98768.77
2023-11-03T14:15:14.304Z,98766.26
2023-11-03T14:17:43.427Z,98763.75
2023-11-03T14:20:12.069Z,98763.94
2023-11-03T14:22:43.044Z,98767.16
2023-11-03T14:25:12.561Z,98758.70
2023-11-03T14:27:41.125Z,98753.63
2023-11-03T14:30:13.957Z,98752.45
2023-11-03T14:32:42.122Z,98747.71
2023-11-03T14:35:13.837Z,98751.89
2023-11-03T14:37:43.521Z,98746.62
2023-11-03T14:40:16.899Z,98745.70
2023-11-03T14:42:47.476Z,98742.70
2023-11-03T14:45:17.965Z,98731.70
2023-11-03T14:47:46.021Z,98734.25
2023-11-03T14:50:13.892Z,98738.33
2023-11-03T14:52:41.740Z,98736.13
2023-11-03T14:55:09.803Z,98731.17
2023-11-03T14:57:38.664Z,98728.99
2023-11-03T15:00:07.240Z,98724.91
2023-11-03T15:02:34.950Z,98721.44
2023-11-03T15:05:02.640Z,98713.92
2023-11-03T15:07:32.118Z,98715.34
2023-11-03T15:09:59.973Z,98718.81
2023-11-03T15:12:30.875Z,98716.31
2023-11-03T15:14:58.447Z,98713.41
2023-11-03T15:17:26.121Z,98703.60
2023-11-03T15:19:56.953Z,98700.41
2023-11-03T15:22:24.601Z,98688.45
2023-11-03T15:24:52.391Z,98679.95
2023-11-03T15:27:20.473Z,98677.57
2023-11-03T15:29:48.061Z,98680.45
2023-11-03T15:32:15.592Z,98693.90
2023-11-03T15:34:43.187Z,98703.27
2023-11-03T15:37:11.590Z,98705.86
2023-11-03T15:39:39.512Z,98700.08
2023-11-03T15:42:07.598Z,98700.58
2023-11-03T15:44:36.101Z,98701.35
2023-11-03T15:47:04.061Z,98701.94
2023-11-03T15:49:32.661Z,98698.06
2023-11-03T15:52:00.625Z,98697.83
2023-11-03T15:54:30.230Z,98690.48
2023-11-03T15:56:59.371Z,98689.58
2023-11-03T15:59:27.016Z,98693.63
2023-11-03T16:01:54.671Z,98693.17
2023-11-03T16:04:25.606Z,98701.96
2023-11-03T16:06:53.487Z,98716.81
2023-11-03T16:09:23.567Z,98716.61
2023-11-03T16:11:52.768Z,98714.21
2023-11-03T16:14:20.407Z,98705.46
2023-11-03T16:16:47.954Z,98695.80
2023-11-03T16:19:15.820Z,98689.55
2023-11-03T16:21:43.531Z,98685.18
2023-11-03T16:24:11.146Z,98683.58
2023-11-03T16:26:38.716Z,98684.06
2023-11-03T16:29:07.569Z,98685.40
2023-11-03T16:31:35.320Z,98681.70
2023-11-03T16:34:03.218Z,98678.85
2023-11-03T16:36:30.916Z,98673.81
2023-11-03T16:38:58.616Z,98670.45
2023-11-03T16:41:28.304Z,98663.13
2023-11-03T16:43:55.870Z,98658.80
2023-11-03T16:46:25.343Z,98655.63
2023-11-03T16:48:53.410Z,98655.39
2023-11-03T16:51:22.372Z,98656.29
2023-11-03T16:53:49.917Z,98663.30
2023-11-03T16:56:17.585Z,98664.61
2023-11-03T16:58:45.175Z,98655.73
2023-11-03T17:01:14.483Z,98652.22
2023-11-03T17:03:42.285Z,98649.01
2023-11-03T17:06:09.994Z,98642.35
2023-11-03T17:08:38.588Z,98642.04
2023-11-03T17:11:07.382Z,98652.21
2023-11-03T17:13:37.041Z,98652.52
2023-11-03T17:16:05.136Z,98652.76
2023-11-03T17:18:33.886Z,98647.65
2023-11-03T17:21:01.633Z,98641.55
2023-11-03T17:23:29.498Z,98633.84
2023-11-03T17:25:57.189Z,98636.96
2023-11-03T17:28:25.056Z,98630.68
2023-11-03T17:30:52.706Z,98634.90
2023-11-03T17:33:20.358Z,98642.53
2023-11-03T17:35:47.938Z,98640.91
2023-11-03T17:38:16.375Z,98638.49
2023-11-03T17:40:44.171Z,98637.15
2023-11-03T17:43:13.432Z,98634.22
2023-11-03T17:45:42.408Z,98632.52
2023-11-03T17:48:10.001Z,98637.55
2023-11-03T17:50:38.554Z,98637.90
2023-11-03T17:53:06.230Z,98628.95
2023-11-03T17:55:33.984Z,98627.50
2023-11-03T17:58:01.553Z,98626.96
2023-11-03T18:00:29.120Z,98624.00
2023-11-03T18:02:56.702Z,98625.30
2023-11-03T18:05:25.742Z,98615.36
2023-11-03T18:07:53.984Z,98608.38
2023-11-03T18:10:21.941Z,98597.48
2023-11-03T18:12:51.540Z,98599.10
2023-11-03T18:15:23.139Z,98602.19
2023-11-03T18:17:51.258Z,98605.84
2023-11-03T18:20:19.400Z,98600.13
2023-11-03T18:22:49.312Z,98605.33
2023-11-03T18:25:20.737Z,98611.09
2023-11-03T18:27:49.383Z,98611.59
2023-11-03T18:30:17.822Z,98603.98
2023-11-03T18:32:46.197Z,98599.84
2023-11-03T18:35:15.427Z,98601.29
2023-11-03T18:37:43.546Z,98604.13
2023-11-03T18:40:16.211Z,98597.84
2023-11-03T18:42:46.266Z,98591.71
2023-11-03T18:45:13.849Z,98587.64
2023-11-03T18:47:41.680Z,98584.96
2023-11-03T18:52:41.827Z,98584.48
2023-11-03T18:56:05.310Z,98592.75
2023-11-03T19:07:22.132Z,98588.19
2023-11-03T19:08:24.720Z,98585.41
2023-11-03T19:10:52.870Z,98583.06
2023-11-03T19:13:22.276Z,98583.14
2023-11-03T19:15:52.432Z,98582.42
2023-11-03T19:18:21.752Z,98584.86
2023-11-03T19:20:50.213Z,98581.70
2023-11-03T19:23:18.093Z,98571.90
2023-11-03T19:25:45.926Z,98568.82
2023-11-03T19:28:14.513Z,98567.80
2023-11-03T19:30:42.740Z,98564.81
2023-11-03T19:33:12.373Z,98559.20
2023-11-03T19:35:49.654Z,98552.54
2023-11-03T19:38:21.774Z,98548.63
2023-11-03T19:40:49.829Z,98543.64
2023-11-03T19:43:17.611Z,98545.58
2023-11-03T19:45:45.328Z,98550.15
2023-11-03T19:48:13.329Z,98550.19
2023-11-03T19:50:41.524Z,98549.92
2023-11-03T19:53:10.119Z,98554.81
2023-11-03T19:55:38.080Z,98558.80
2023-11-03T19:58:05.778Z,98561.95
2023-11-03T20:00:33.424Z,98561.61
2023-11-03T20:03:01.334Z,98557.10
2023-11-03T20:05:29.060Z,98558.65
2023-11-03T20:07:56.772Z,98558.31
2023-11-03T20:10:26.031Z,98556.62
2023-11-03T20:12:53.801Z,98559.44
2023-11-03T20:15:21.805Z,98557.20
2023-11-03T20:17:52.066Z,98553.60
2023-11-03T20:20:20.386Z,98553.15
2023-11-03T20:22:48.060Z,98553.67
2023-11-03T20:25:15.621Z,98556.38
2023-11-03T20:27:43.348Z,98549.58
2023-11-03T20:30:11.481Z,98546.17
2023-11-03T20:32:39.179Z,98538.88
2023-11-03T20:35:08.358Z,98541.48
2023-11-03T20:37:36.118Z,98547.93
2023-11-03T20:40:09.843Z,98551.08
2023-11-03T20:42:38.755Z,98551.23
2023-11-03T20:45:11.855Z,98550.33
2023-11-03T20:47:40.233Z,98555.52
2023-11-03T20:50:10.115Z,98558.96
2023-11-03T20:52:37.762Z,98556.75
2023-11-03T20:55:06.552Z,98549.86
2023-11-03T20:57:34.391Z,98543.83
2023-11-03T21:00:02.832Z,98538.84
2023-11-03T21:02:30.826Z,98534.34
2023-11-03T21:04:58.716Z,98526.95
2023-11-03T21:07:26.534Z,98517.95
2023-11-03T21:09:54.217Z,98505.65
2023-11-03T21:12:21.816Z,98496.27
2023-11-03T21:14:49.453Z,98495.02
2023-11-03T21:17:18.232Z,98487.77
2023-11-03T21:19:46.456Z,98475.25
2023-11-03T21:22:15.730Z,98468.63
2023-11-03T21:24:43.477Z,98473.40
2023-11-03T21:27:11.378Z,98471.02
2023-11-03T21:29:39.544Z,98467.91
2023-11-03T21:32:08.430Z,98469.69
2023-11-03T21:34:37.333Z,98470.59
2023-11-03T21:37:05.626Z,98474.52
2023-11-03T21:39:33.986Z,98481.73
2023-11-03T21:42:01.765Z,98485.71
2023-11-03T21:44:30.747Z,98496.70
2023-11-03T21:46:58.443Z,98495.87
2023-11-03T21:49:26.360Z,98487.91
2023-11-03T21:51:53.968Z,98498.89
2023-11-03T21:54:21.568Z,98503.58
2023-11-03T21:56:49.640Z,98503.20
2023-11-03T21:59:17.608Z,98498.39
2023-11-03T22:01:45.378Z,98497.11
2023-11-03T22:04:13.788Z,98501.09
2023-11-03T22:06:41.547Z,98505.02
2023-11-03T22:09:10.441Z,98495.65
2023-11-03T22:11:38.307Z,98505.89
2023-11-03T22:14:05.893Z,98509.83
2023-11-03T22:16:33.610Z,98509.16
2023-11-03T22:19:01.956Z,98506.31
2023-11-03T22:21:29.695Z,98503.17
2023-11-03T22:23:57.531Z,98501.81
2023-11-03T22:26:32.786Z,98491.58
2023-11-03T22:29:08.220Z,98491.97
2023-11-03T22:31:48.607Z,98492.02
2023-11-03T22:34:17.314Z,98481.30
2023-11-03T22:36:45.089Z,98470.06
2023-11-03T22:39:12.758Z,98462.63
2023-11-03T22:41:40.380Z,98461.77
2023-11-03T22:44:08.767Z,98459.29
2023-11-03T22:46:36.342Z,98449.65
2023-11-03T22:49:04.111Z,98446.63
2023-11-03T22:51:31.897Z,98452.19
2023-11-03T22:54:00.164Z,98452.95
2023-11-03T22:56:29.149Z,98448.00
2023-11-03T22:58:57.022Z,98438.19
2023-11-03T23:01:24.698Z,98436.17
2023-11-03T23:03:52.327Z,98437.44
2023-11-03T23:06:21.311Z,98428.70
2023-11-03T23:08:49.258Z,98415.67
2023-11-03T23:11:17.658Z,98399.73
2023-11-03T23:13:46.300Z,98387.57
2023-11-03T23:16:13.963Z,98375.12
2023-11-03T23:18:41.624Z,98372.33
2023-11-03T23:21:12.826Z,98377.07
2023-11-03T23:23:41.476Z,98378.89
2023-11-03T23:26:09.050Z,98371.63
2023-11-03T23:28:36.815Z,98370.45
2023-11-03T23:31:05.145Z,98359.97
2023-11-03T23:33:33.170Z,98359.63
2023-11-03T23:36:01.549Z,98363.48
2023-11-03T23:38:29.060Z,98355.63
2023-11-03T23:40:56.680Z,98355.91
2023-11-03T23:43:24.259Z,98356.61
2023-11-03T23:45:52.122Z,98359.88
2023-11-03T23:48:21.911Z,98355.77
2023-11-03T23:50:49.825Z,98342.12
2023-11-03T23:53:17.368Z,98345.52
2023-11-03T23:55:44.934Z,98340.45
2023-11-03T23:58:12.605Z,98337.58
